createdAt,value
2019-03-30T00:00:57.706Z,102072.11
2019-03-30T00:02:07.424Z,102070.51
2019-03-30T00:03:13.962Z,102072.83
2019-03-30T00:04:19.752Z,102068.66
2019-03-30T00:05:26.655Z,102073.84
2019-03-30T00:06:32.453Z,102071.55
2019-03-30T00:07:38.461Z,102071.17
2019-03-30T00:08:44.962Z,102066.69
2019-03-30T00:09:51.256Z,102067.16
2019-03-30T00:10:57.009Z,102064.23
2019-03-30T00:12:03.503Z,102066.78
2019-03-30T00:13:09.915Z,102058.61
2019-03-30T00:14:17.513Z,102059.38
2019-03-30T00:15:24.248Z,102058.00
2019-03-30T00:16:30.490Z,102059.03
2019-03-30T00:17:36.826Z,102056.04
2019-03-30T00:18:42.890Z,102063.59
2019-03-30T00:19:48.643Z,102060.70
2019-03-30T00:20:54.689Z,102063.72
2019-03-30T00:22:01.386Z,102063.19
2019-03-30T00:23:08.255Z,102055.30
2019-03-30T00:24:14.642Z,102054.82
2019-03-30T00:25:20.925Z,102045.44
2019-03-30T00:26:27.246Z,102055.68
2019-03-30T00:27:34.169Z,102057.23
2019-03-30T00:28:40.038Z,102054.36
2019-03-30T00:29:46.352Z,102054.38
2019-03-30T00:30:53.150Z,102049.70
2019-03-30T00:32:00.322Z,102047.88
2019-03-30T00:33:06.820Z,102047.73
2019-03-30T00:34:12.315Z,102047.35
2019-03-30T00:35:18.017Z,102047.84
2019-03-30T00:36:24.267Z,102039.75
2019-03-30T00:37:31.190Z,102042.03
2019-03-30T00:38:37.943Z,102045.86
2019-03-30T00:39:43.699Z,102047.40
2019-03-30T00:40:49.811Z,102041.95
2019-03-30T00:41:56.646Z,102042.39
2019-03-30T00:43:02.929Z,102040.69
2019-03-30T00:44:08.656Z,102045.30
2019-03-30T00:45:14.397Z,102040.27
2019-03-30T00:46:21.606Z,102041.24
2019-03-30T00:47:28.284Z,102038.05
2019-03-30T00:48:35.267Z,102041.16
2019-03-30T00:49:48.959Z,102037.20
2019-03-30T00:50:50.098Z,102043.86
2019-03-30T00:51:57.711Z,102037.95
2019-03-30T00:53:05.229Z,102040.05
2019-03-30T00:54:12.934Z,102043.28
2019-03-30T00:55:19.061Z,102043.02
2019-03-30T00:56:25.452Z,102035.19
2019-03-30T00:57:32.058Z,102039.97
2019-03-30T00:58:37.878Z,102039.33
2019-03-30T00:59:44.361Z,102041.12
2019-03-30T01:00:50.234Z,102039.66
2019-03-30T01:01:57.047Z,102030.61
2019-03-30T01:03:02.928Z,102028.42
2019-03-30T01:04:09.820Z,102024.66
2019-03-30T01:05:16.051Z,102030.32
2019-03-30T01:06:22.340Z,102022.38
2019-03-30T01:07:28.440Z,102025.35
2019-03-30T01:08:35.517Z,102024.13
2019-03-30T01:09:42.160Z,102025.77
2019-03-30T01:10:48.581Z,102022.89
2019-03-30T01:11:55.198Z,102023.77
2019-03-30T01:13:00.769Z,102022.83
2019-03-30T01:14:06.394Z,102021.37
2019-03-30T01:15:12.488Z,102022.79
2019-03-30T01:16:18.653Z,102025.75
2019-03-30T01:17:24.813Z,102018.11
2019-03-30T01:18:32.291Z,102018.06
2019-03-30T01:19:38.051Z,102021.03
2019-03-30T01:20:45.474Z,102018.91
2019-03-30T01:21:52.369Z,102020.61
2019-03-30T01:22:58.901Z,102019.39
2019-03-30T01:24:05.289Z,102017.26
2019-03-30T01:25:12.008Z,102013.23
2019-03-30T01:26:18.616Z,102011.80
2019-03-30T01:27:24.970Z,102015.52
2019-03-30T01:28:32.048Z,102007.53
2019-03-30T01:29:38.856Z,102017.38
2019-03-30T01:30:45.226Z,102006.19
2019-03-30T01:31:51.937Z,102012.38
2019-03-30T01:32:57.583Z,102014.25
2019-03-30T01:34:04.860Z,102013.03
2019-03-30T01:35:10.996Z,102017.84
2019-03-30T01:36:16.601Z,102012.55
2019-03-30T01:37:24.503Z,102014.92
2019-03-30T01:38:32.172Z,102009.80
2019-03-30T01:39:37.972Z,102008.91
2019-03-30T01:40:44.794Z,102009.28
2019-03-30T01:41:51.110Z,102007.91
2019-03-30T01:42:56.975Z,102012.32
2019-03-30T01:44:02.662Z,102016.76
2019-03-30T01:45:09.346Z,102011.38
2019-03-30T01:46:16.144Z,102013.32
2019-03-30T01:47:22.499Z,102011.45
2019-03-30T01:48:29.128Z,102003.36
2019-03-30T01:49:35.120Z,102005.22
2019-03-30T01:50:41.726Z,102005.19
2019-03-30T01:51:49.563Z,102007.12
2019-03-30T01:52:56.441Z,102007.27
2019-03-30T01:54:03.263Z,102005.98
2019-03-30T01:55:09.661Z,102008.89
2019-03-30T01:56:16.883Z,101996.66
2019-03-30T01:57:23.453Z,101994.16
2019-03-30T01:58:29.461Z,101989.92
2019-03-30T01:59:35.839Z,101988.63
2019-03-30T02:00:42.135Z,101996.60
2019-03-30T02:01:47.887Z,101998.02
2019-03-30T02:02:54.191Z,101993.77
2019-03-30T02:04:00.800Z,101994.60
2019-03-30T02:05:07.059Z,101988.01
2019-03-30T02:06:13.340Z,101992.69
2019-03-30T02:07:19.414Z,101994.16
2019-03-30T02:08:26.185Z,101993.08
2019-03-30T02:09:32.119Z,101985.51
2019-03-30T02:10:47.107Z,101989.30
2019-03-30T02:11:52.870Z,101987.86
2019-03-30T02:12:58.705Z,101982.99
2019-03-30T02:14:05.181Z,101974.34
2019-03-30T02:15:11.414Z,101974.23
2019-03-30T02:16:18.556Z,101982.07
2019-03-30T02:17:24.892Z,101973.05
2019-03-30T02:18:31.492Z,101969.94
2019-03-30T02:19:37.300Z,101974.03
2019-03-30T02:20:44.578Z,101979.29
2019-03-30T02:21:50.607Z,101972.84
2019-03-30T02:22:58.062Z,101982.56
2019-03-30T02:24:04.096Z,101975.63
2019-03-30T02:25:10.837Z,101976.88
2019-03-30T02:26:17.411Z,101977.52
2019-03-30T02:27:23.258Z,101973.47
2019-03-30T02:28:30.876Z,101968.28
2019-03-30T02:29:37.134Z,101975.13
2019-03-30T02:30:43.764Z,101972.50
2019-03-30T02:31:49.792Z,101978.90
2019-03-30T02:32:56.126Z,101971.20
2019-03-30T02:34:03.026Z,101972.67
2019-03-30T02:35:08.830Z,101977.17
2019-03-30T02:36:16.299Z,101971.84
2019-03-30T02:37:22.031Z,101969.75
2019-03-30T02:38:28.106Z,101969.83
2019-03-30T02:39:33.815Z,101971.13
2019-03-30T02:40:41.194Z,101965.33
2019-03-30T02:41:47.115Z,101968.59
2019-03-30T02:42:53.870Z,101966.11
2019-03-30T02:44:00.596Z,101968.39
2019-03-30T02:45:06.441Z,101969.71
2019-03-30T02:46:14.113Z,101965.28
2019-03-30T02:47:20.720Z,101970.47
2019-03-30T02:48:28.313Z,101971.84
2019-03-30T02:49:35.133Z,101966.40
2019-03-30T02:50:50.029Z,101964.39
2019-03-30T02:51:49.556Z,101968.87
2019-03-30T02:52:55.295Z,101971.22
2019-03-30T02:54:01.870Z,101967.43
2019-03-30T02:55:12.445Z,101964.03
2019-03-30T02:56:16.047Z,101962.33
2019-03-30T02:57:22.785Z,101965.73
2019-03-30T02:58:28.959Z,101963.61
2019-03-30T02:59:35.157Z,101968.52
2019-03-30T03:00:42.110Z,101961.41
2019-03-30T03:01:48.585Z,101962.23
2019-03-30T03:02:55.966Z,101964.76
2019-03-30T03:04:02.203Z,101965.37
2019-03-30T03:05:08.672Z,101960.84
2019-03-30T03:06:15.394Z,101962.75
2019-03-30T03:07:21.646Z,101961.48
2019-03-30T03:08:28.965Z,101957.80
2019-03-30T03:09:35.324Z,101963.20
2019-03-30T03:10:41.118Z,101962.42
2019-03-30T03:11:48.312Z,101962.18
2019-03-30T03:12:54.104Z,101962.19
2019-03-30T03:14:00.082Z,101956.36
2019-03-30T03:15:05.946Z,101956.73
2019-03-30T03:16:11.767Z,101960.80
2019-03-30T03:17:18.942Z,101957.33
2019-03-30T03:18:24.777Z,101955.16
2019-03-30T03:19:31.925Z,101954.02
2019-03-30T03:20:38.835Z,101950.16
2019-03-30T03:21:44.572Z,101953.09
2019-03-30T03:22:51.990Z,101955.15
2019-03-30T03:23:58.923Z,101941.64
2019-03-30T03:25:05.597Z,101948.98
2019-03-30T03:26:11.022Z,101949.67
2019-03-30T03:27:18.437Z,101948.59
2019-03-30T03:28:25.292Z,101946.27
2019-03-30T03:29:32.582Z,101950.55
2019-03-30T03:30:38.937Z,101946.24
2019-03-30T03:31:45.278Z,101948.05
2019-03-30T03:32:52.910Z,101951.58
2019-03-30T03:33:58.483Z,101951.87
2019-03-30T03:35:04.298Z,101947.41
2019-03-30T03:36:11.135Z,101947.44
2019-03-30T03:37:17.752Z,101948.99
2019-03-30T03:38:24.492Z,101944.07
2019-03-30T03:39:32.353Z,101943.41
2019-03-30T03:40:39.302Z,101945.72
2019-03-30T03:41:44.982Z,101940.16
2019-03-30T03:42:52.757Z,101943.38
2019-03-30T03:44:00.599Z,101943.72
2019-03-30T03:45:07.284Z,101941.94
2019-03-30T03:46:13.411Z,101939.53
2019-03-30T03:47:20.604Z,101936.72
2019-03-30T03:48:27.328Z,101933.61
2019-03-30T03:49:33.435Z,101936.38
2019-03-30T03:50:43.305Z,101940.81
2019-03-30T03:51:49.296Z,101940.89
2019-03-30T03:52:56.484Z,101943.09
2019-03-30T03:54:02.633Z,101939.21
2019-03-30T03:55:08.803Z,101937.42
2019-03-30T03:56:17.490Z,101939.34
2019-03-30T03:57:27.285Z,101937.14
2019-03-30T03:58:35.517Z,101934.91
2019-03-30T03:59:43.574Z,101938.41
2019-03-30T04:00:51.115Z,101932.61
2019-03-30T04:01:58.499Z,101933.03
2019-03-30T04:03:05.245Z,101933.52
2019-03-30T04:04:13.696Z,101930.60
2019-03-30T04:05:21.510Z,101930.33
2019-03-30T04:06:28.677Z,101923.39
2019-03-30T04:07:37.314Z,101928.11
2019-03-30T04:08:46.810Z,101927.35
2019-03-30T04:09:56.598Z,101922.64
2019-03-30T04:11:04.590Z,101921.79
2019-03-30T04:12:11.929Z,101921.79
2019-03-30T04:13:19.373Z,101923.86
2019-03-30T04:14:27.278Z,101915.06
2019-03-30T04:15:33.022Z,101917.17
2019-03-30T04:16:40.394Z,101915.66
2019-03-30T04:17:46.809Z,101913.85
2019-03-30T04:18:52.821Z,101916.47
2019-03-30T04:19:59.438Z,101916.89
2019-03-30T04:21:05.471Z,101907.91
2019-03-30T04:22:12.360Z,101914.41
2019-03-30T04:23:18.194Z,101914.41
2019-03-30T04:24:24.687Z,101919.38
2019-03-30T04:25:30.995Z,101916.44
2019-03-30T04:26:37.598Z,101912.86
2019-03-30T04:27:44.416Z,101917.62
2019-03-30T04:28:51.234Z,101918.02
2019-03-30T04:29:58.415Z,101920.98
2019-03-30T04:31:04.320Z,101919.02
2019-03-30T04:32:10.896Z,101915.34
2019-03-30T04:33:18.448Z,101916.05
2019-03-30T04:34:24.725Z,101915.56
2019-03-30T04:35:30.793Z,101910.23
2019-03-30T04:36:37.251Z,101910.88
2019-03-30T04:37:44.394Z,101905.84
2019-03-30T04:38:52.195Z,101906.00
2019-03-30T04:39:58.957Z,101909.13
2019-03-30T04:41:04.978Z,101899.69
2019-03-30T04:42:11.259Z,101899.59
2019-03-30T04:43:18.065Z,101903.89
2019-03-30T04:44:27.480Z,101897.20
2019-03-30T04:45:32.918Z,101901.09
2019-03-30T04:46:39.349Z,101897.94
2019-03-30T04:47:45.372Z,101900.95
2019-03-30T04:48:51.871Z,101898.28
2019-03-30T04:49:58.830Z,101898.14
2019-03-30T04:51:05.178Z,101898.14
2019-03-30T04:52:12.483Z,101895.25
2019-03-30T04:53:19.315Z,101887.55
2019-03-30T04:54:25.622Z,101886.05
2019-03-30T04:55:32.269Z,101887.91
2019-03-30T04:56:38.812Z,101889.23
2019-03-30T04:57:49.702Z,101886.94
2019-03-30T04:58:54.996Z,101887.03
2019-03-30T05:00:01.807Z,101886.67
2019-03-30T05:01:08.643Z,101887.62
2019-03-30T05:02:14.920Z,101891.58
2019-03-30T05:03:22.483Z,101888.20
2019-03-30T05:04:29.230Z,101889.62
2019-03-30T05:05:35.258Z,101894.09
2019-03-30T05:06:41.357Z,101890.98
2019-03-30T05:07:47.983Z,101892.80
2019-03-30T05:08:54.702Z,101886.39
2019-03-30T05:10:00.614Z,101887.99
2019-03-30T05:11:08.006Z,101888.11
2019-03-30T05:12:14.769Z,101888.59
2019-03-30T05:13:20.349Z,101893.70
2019-03-30T05:14:26.701Z,101892.55
2019-03-30T05:15:32.890Z,101889.72
2019-03-30T05:16:40.672Z,101890.63
2019-03-30T05:17:48.282Z,101883.94
2019-03-30T05:18:54.000Z,101888.49
2019-03-30T05:20:00.906Z,101877.46
2019-03-30T05:21:08.473Z,101881.95
2019-03-30T05:22:16.597Z,101877.20
2019-03-30T05:23:22.175Z,101880.44
2019-03-30T05:24:28.579Z,101878.04
2019-03-30T05:25:36.195Z,101877.59
2019-03-30T05:26:42.425Z,101882.28
2019-03-30T05:27:48.184Z,101878.53
2019-03-30T05:28:54.754Z,101878.11
2019-03-30T05:30:00.805Z,101875.49
2019-03-30T05:31:07.726Z,101877.73
2019-03-30T05:32:15.166Z,101875.38
2019-03-30T05:33:21.470Z,101871.99
2019-03-30T05:34:28.224Z,101871.08
2019-03-30T05:35:34.710Z,101866.52
2019-03-30T05:36:40.392Z,101873.91
2019-03-30T05:37:47.662Z,101867.66
2019-03-30T05:38:53.883Z,101864.25
2019-03-30T05:39:59.655Z,101870.95
2019-03-30T05:41:05.400Z,101868.27
2019-03-30T05:42:12.138Z,101867.63
2019-03-30T05:43:19.116Z,101863.22
2019-03-30T05:44:25.759Z,101865.79
2019-03-30T05:45:32.312Z,101867.23
2019-03-30T05:46:38.049Z,101871.03
2019-03-30T05:47:43.933Z,101864.86
2019-03-30T05:48:50.645Z,101860.67
2019-03-30T05:49:56.915Z,101866.16
2019-03-30T05:51:03.550Z,101872.33
2019-03-30T05:52:09.507Z,101872.52
2019-03-30T05:53:15.498Z,101876.98
2019-03-30T05:54:21.786Z,101879.06
2019-03-30T05:55:28.662Z,101877.85
2019-03-30T05:56:34.384Z,101874.91
2019-03-30T05:57:41.179Z,101878.07
2019-03-30T05:58:48.213Z,101879.31
2019-03-30T05:59:55.991Z,101878.33
2019-03-30T06:01:02.872Z,101876.27
2019-03-30T06:02:09.066Z,101874.52
2019-03-30T06:03:15.381Z,101873.92
2019-03-30T06:04:22.332Z,101874.00
2019-03-30T06:05:29.255Z,101876.92
2019-03-30T06:06:35.595Z,101876.44
2019-03-30T06:07:42.970Z,101870.11
2019-03-30T06:08:48.424Z,101878.95
2019-03-30T06:09:55.060Z,101878.77
2019-03-30T06:11:00.905Z,101875.67
2019-03-30T06:12:07.778Z,101874.94
2019-03-30T06:13:13.976Z,101872.50
2019-03-30T06:14:21.374Z,101872.72
2019-03-30T06:15:27.134Z,101871.03
2019-03-30T06:16:34.039Z,101873.98
2019-03-30T06:17:40.392Z,101872.77
2019-03-30T06:18:46.164Z,101878.75
2019-03-30T06:19:53.210Z,101875.03
2019-03-30T06:21:00.983Z,101875.71
2019-03-30T06:22:06.744Z,101870.91
2019-03-30T06:23:13.425Z,101876.77
2019-03-30T06:24:19.402Z,101877.27
2019-03-30T06:25:25.065Z,101874.47
2019-03-30T06:26:31.538Z,101871.33
2019-03-30T06:27:38.321Z,101875.13
2019-03-30T06:28:44.505Z,101872.06
2019-03-30T06:30:26.343Z,101876.91
2019-03-30T06:31:32.495Z,101870.65
2019-03-30T06:32:38.832Z,101868.48
2019-03-30T06:33:44.596Z,101869.73
2019-03-30T06:34:50.362Z,101875.61
2019-03-30T06:35:57.155Z,101873.39
2019-03-30T06:37:03.397Z,101873.44
2019-03-30T06:38:09.563Z,101879.41
2019-03-30T06:39:15.984Z,101878.42
2019-03-30T06:40:21.736Z,101873.56
2019-03-30T06:41:28.570Z,101874.55
2019-03-30T06:42:35.255Z,101875.65
2019-03-30T06:43:42.656Z,101873.98
2019-03-30T06:44:49.255Z,101869.20
2019-03-30T06:45:56.056Z,101869.52
2019-03-30T06:47:02.271Z,101868.75
2019-03-30T06:48:09.011Z,101872.52
2019-03-30T06:49:15.461Z,101876.28
2019-03-30T06:50:22.447Z,101872.19
2019-03-30T06:51:29.219Z,101875.22
2019-03-30T06:52:36.201Z,101873.26
2019-03-30T06:53:41.955Z,101876.70
2019-03-30T06:54:48.404Z,101877.24
2019-03-30T06:55:54.956Z,101873.23
2019-03-30T06:57:00.844Z,101876.56
2019-03-30T06:58:07.000Z,101874.12
2019-03-30T06:59:13.110Z,101869.86
2019-03-30T07:00:20.410Z,101875.49
2019-03-30T07:01:26.810Z,101876.78
2019-03-30T07:02:33.331Z,101876.73
2019-03-30T07:03:39.093Z,101886.41
2019-03-30T07:04:46.850Z,101881.66
2019-03-30T07:05:55.628Z,101881.59
2019-03-30T07:07:03.350Z,101875.56
2019-03-30T07:08:13.122Z,101873.38
2019-03-30T07:09:22.407Z,101880.30
2019-03-30T07:10:28.248Z,101872.89
2019-03-30T07:11:37.362Z,101869.91
2019-03-30T07:12:45.245Z,101880.75
2019-03-30T07:13:53.323Z,101872.91
2019-03-30T07:15:02.325Z,101869.45
2019-03-30T07:16:09.428Z,101869.00
2019-03-30T07:17:16.964Z,101867.64
2019-03-30T07:18:22.995Z,101870.23
2019-03-30T07:19:32.852Z,101875.84
2019-03-30T07:20:39.591Z,101874.08
2019-03-30T07:21:47.002Z,101873.21
2019-03-30T07:22:53.702Z,101866.41
2019-03-30T07:24:00.179Z,101872.06
2019-03-30T07:25:06.320Z,101870.76
2019-03-30T07:26:13.389Z,101878.14
2019-03-30T07:27:20.330Z,101870.66
2019-03-30T07:28:26.678Z,101875.53
2019-03-30T07:29:32.633Z,101875.80
2019-03-30T07:30:38.678Z,101877.15
2019-03-30T07:31:45.791Z,101870.18
2019-03-30T07:32:52.167Z,101871.58
2019-03-30T07:33:58.927Z,101874.09
2019-03-30T07:35:04.806Z,101866.02
2019-03-30T07:36:10.547Z,101868.83
2019-03-30T07:37:16.620Z,101866.41
2019-03-30T07:38:22.524Z,101865.97
2019-03-30T07:39:28.455Z,101870.27
2019-03-30T07:40:35.024Z,101865.70
2019-03-30T07:41:41.554Z,101857.22
2019-03-30T07:42:48.736Z,101862.89
2019-03-30T07:43:55.712Z,101859.49
2019-03-30T07:45:02.114Z,101866.94
2019-03-30T07:46:08.982Z,101866.94
2019-03-30T07:47:15.369Z,101867.13
2019-03-30T07:48:21.956Z,101854.36
2019-03-30T07:49:28.172Z,101860.50
2019-03-30T07:50:35.046Z,101860.50
2019-03-30T07:51:41.342Z,101854.34
2019-03-30T07:52:47.963Z,101858.02
2019-03-30T07:53:55.386Z,101856.50
2019-03-30T07:55:01.755Z,101855.30
2019-03-30T07:56:08.967Z,101856.61
2019-03-30T07:57:17.561Z,101858.50
2019-03-30T07:58:23.552Z,101858.50
2019-03-30T07:59:30.725Z,101856.69
2019-03-30T08:00:36.719Z,101851.75
2019-03-30T08:01:42.743Z,101854.06
2019-03-30T08:02:49.392Z,101854.91
2019-03-30T08:03:55.556Z,101857.92
2019-03-30T08:05:02.939Z,101857.95
2019-03-30T08:06:09.311Z,101852.11
2019-03-30T08:07:15.361Z,101854.52
2019-03-30T08:08:21.364Z,101855.08
2019-03-30T08:09:27.851Z,101853.36
2019-03-30T08:10:33.908Z,101855.69
2019-03-30T08:11:39.986Z,101852.59
2019-03-30T08:12:47.455Z,101850.05
2019-03-30T08:13:54.828Z,101845.91
2019-03-30T08:15:01.144Z,101845.30
2019-03-30T08:16:07.955Z,101846.17
2019-03-30T08:17:13.548Z,101846.87
2019-03-30T08:18:20.082Z,101847.13
2019-03-30T08:19:28.631Z,101845.58
2019-03-30T08:20:34.372Z,101842.81
2019-03-30T08:21:40.469Z,101851.34
2019-03-30T08:22:46.728Z,101839.31
2019-03-30T08:23:52.479Z,101848.02
2019-03-30T08:24:58.265Z,101841.09
2019-03-30T08:26:05.043Z,101818.02
2019-03-30T08:27:11.164Z,101804.86
2019-03-30T08:28:18.049Z,101805.73
2019-03-30T08:29:26.013Z,101803.35
2019-03-30T08:30:31.494Z,101801.13
2019-03-30T08:31:37.269Z,101799.71
2019-03-30T08:32:42.920Z,101786.48
2019-03-30T08:33:48.862Z,101787.91
2019-03-30T08:34:55.612Z,101785.23
2019-03-30T08:36:03.001Z,101775.30
2019-03-30T08:37:10.476Z,101773.63
2019-03-30T08:38:17.274Z,101768.05
2019-03-30T08:39:23.266Z,101765.43
2019-03-30T08:40:32.380Z,101763.64
2019-03-30T08:41:38.682Z,101755.00
2019-03-30T08:42:45.631Z,101744.38
2019-03-30T08:43:52.071Z,101739.52
2019-03-30T08:44:58.746Z,101733.19
2019-03-30T08:46:04.482Z,101737.48
2019-03-30T08:47:10.799Z,101722.58
2019-03-30T08:48:17.292Z,101720.38
2019-03-30T08:49:24.809Z,101709.80
2019-03-30T08:50:30.732Z,101714.45
2019-03-30T08:51:36.388Z,101702.25
2019-03-30T08:52:43.308Z,101705.02
2019-03-30T08:53:54.761Z,101696.66
2019-03-30T08:54:57.954Z,101697.91
2019-03-30T08:56:04.348Z,101688.42
2019-03-30T08:57:10.287Z,101685.66
2019-03-30T08:58:16.725Z,101687.05
2019-03-30T08:59:24.982Z,101682.16
2019-03-30T09:00:49.067Z,101683.27
2019-03-30T09:01:56.294Z,101674.17
2019-03-30T09:03:01.878Z,101675.97
2019-03-30T09:04:07.649Z,101673.87
2019-03-30T09:05:14.957Z,101674.37
2019-03-30T09:06:20.892Z,101672.95
2019-03-30T09:07:27.405Z,101675.61
2019-03-30T09:08:34.507Z,101674.79
2019-03-30T09:09:41.022Z,101667.61
2019-03-30T09:10:47.127Z,101663.31
2019-03-30T09:11:52.951Z,101661.63
2019-03-30T09:13:00.330Z,101666.02
2019-03-30T09:14:06.998Z,101664.95
2019-03-30T09:15:13.122Z,101665.92
2019-03-30T09:16:20.128Z,101666.44
2019-03-30T09:17:27.962Z,101666.50
2019-03-30T09:18:35.193Z,101666.58
2019-03-30T09:19:42.800Z,101669.31
2019-03-30T09:20:49.133Z,101670.81
2019-03-30T09:21:55.992Z,101660.97
2019-03-30T09:23:02.941Z,101670.08
2019-03-30T09:24:10.482Z,101670.56
2019-03-30T09:25:16.271Z,101667.80
2019-03-30T09:26:22.040Z,101672.16
2019-03-30T09:27:28.100Z,101701.80
2019-03-30T09:28:34.584Z,101733.45
2019-03-30T09:29:41.110Z,101767.23
2019-03-30T09:30:48.151Z,101794.23
2019-03-30T09:31:54.463Z,101828.78
2019-03-30T09:33:00.212Z,101825.77
2019-03-30T09:34:07.853Z,101817.44
2019-03-30T09:35:14.036Z,101820.88
2019-03-30T09:36:20.068Z,101809.92
2019-03-30T09:37:27.377Z,101813.65
2019-03-30T09:38:35.228Z,101807.28
2019-03-30T09:39:41.248Z,101809.09
2019-03-30T09:40:48.396Z,101808.89
2019-03-30T09:41:55.789Z,101808.92
2019-03-30T09:43:02.602Z,101792.11
2019-03-30T09:44:09.560Z,101765.47
2019-03-30T09:45:15.455Z,101746.59
2019-03-30T09:46:21.005Z,101724.87
2019-03-30T09:47:28.301Z,101700.59
2019-03-30T09:48:34.964Z,101696.77
2019-03-30T09:49:42.823Z,101705.62
2019-03-30T09:50:50.185Z,101702.09
2019-03-30T09:51:57.066Z,101706.94
2019-03-30T09:53:03.363Z,101715.30
2019-03-30T09:54:22.793Z,101725.88
2019-03-30T09:55:16.931Z,101718.60
2019-03-30T09:56:22.646Z,101723.58
2019-03-30T09:57:28.399Z,101730.16
2019-03-30T09:58:34.384Z,101741.97
2019-03-30T09:59:39.799Z,101767.03
2019-03-30T10:00:46.096Z,101791.22
2019-03-30T10:01:52.871Z,101788.72
2019-03-30T10:02:58.620Z,101791.88
2019-03-30T10:04:05.008Z,101787.30
2019-03-30T10:05:11.493Z,101789.25
2019-03-30T10:06:18.700Z,101796.77
2019-03-30T10:07:24.621Z,101794.59
2019-03-30T10:08:31.035Z,101786.86
2019-03-30T10:09:37.904Z,101786.48
2019-03-30T10:10:43.515Z,101790.48
2019-03-30T10:11:51.244Z,101794.28
2019-03-30T10:12:57.010Z,101792.98
2019-03-30T10:14:03.968Z,101785.84
2019-03-30T10:15:10.406Z,101790.98
2019-03-30T10:16:17.401Z,101784.67
2019-03-30T10:17:24.900Z,101782.84
2019-03-30T10:18:30.914Z,101786.30
2019-03-30T10:19:38.445Z,101784.06
2019-03-30T10:20:44.276Z,101788.23
2019-03-30T10:21:50.915Z,101782.87
2019-03-30T10:22:56.321Z,101789.32
2019-03-30T10:24:03.360Z,101790.45
2019-03-30T10:25:09.358Z,101779.50
2019-03-30T10:26:15.610Z,101789.13
2019-03-30T10:27:21.991Z,101780.94
2019-03-30T10:28:28.568Z,101780.05
2019-03-30T10:29:35.672Z,101778.14
2019-03-30T10:30:42.745Z,101782.14
2019-03-30T10:31:48.794Z,101773.12
2019-03-30T10:32:56.281Z,101773.54
2019-03-30T10:34:02.017Z,101772.43
2019-03-30T10:35:07.988Z,101779.71
2019-03-30T10:36:14.602Z,101779.84
2019-03-30T10:37:21.930Z,101782.50
2019-03-30T10:38:28.646Z,101778.25
2019-03-30T10:39:35.633Z,101776.20
2019-03-30T10:40:41.785Z,101777.31
2019-03-30T10:41:48.285Z,101773.64
2019-03-30T10:42:55.953Z,101775.44
2019-03-30T10:44:03.458Z,101775.42
2019-03-30T10:45:10.085Z,101775.13
2019-03-30T10:46:16.760Z,101776.95
2019-03-30T10:47:22.987Z,101770.97
2019-03-30T10:48:29.232Z,101775.04
2019-03-30T10:49:35.564Z,101774.67
2019-03-30T10:50:42.139Z,101772.00
2019-03-30T10:51:48.475Z,101770.80
2019-03-30T10:52:54.500Z,101766.16
2019-03-30T10:54:01.525Z,101767.23
2019-03-30T10:55:07.393Z,101767.57
2019-03-30T10:56:13.445Z,101771.73
2019-03-30T10:57:21.393Z,101764.70
2019-03-30T10:58:28.159Z,101758.03
2019-03-30T10:59:34.630Z,101764.16
2019-03-30T11:00:41.941Z,101760.44
2019-03-30T11:01:48.978Z,101746.77
2019-03-30T11:02:54.715Z,101754.73
2019-03-30T11:04:01.754Z,101758.30
2019-03-30T11:05:07.778Z,101755.15
2019-03-30T11:06:13.546Z,101747.45
2019-03-30T11:07:19.812Z,101744.88
2019-03-30T11:08:26.626Z,101747.34
2019-03-30T11:09:32.403Z,101745.48
2019-03-30T11:10:38.696Z,101749.56
2019-03-30T11:11:46.004Z,101749.00
2019-03-30T11:12:52.517Z,101749.64
2019-03-30T11:13:58.667Z,101745.36
2019-03-30T11:15:04.699Z,101751.73
2019-03-30T11:16:11.985Z,101753.87
2019-03-30T11:17:19.511Z,101747.64
2019-03-30T11:18:25.325Z,101747.20
2019-03-30T11:19:31.074Z,101749.73
2019-03-30T11:20:38.265Z,101743.81
2019-03-30T11:21:45.479Z,101749.16
2019-03-30T11:22:51.550Z,101749.51
2019-03-30T11:23:58.998Z,101741.92
2019-03-30T11:25:08.518Z,101737.40
2019-03-30T11:26:14.227Z,101738.59
2019-03-30T11:27:20.243Z,101744.33
2019-03-30T11:28:27.554Z,101752.30
2019-03-30T11:29:34.513Z,101737.16
2019-03-30T11:30:41.145Z,101739.42
2019-03-30T11:31:47.181Z,101740.13
2019-03-30T11:32:53.556Z,101743.08
2019-03-30T11:34:00.924Z,101742.75
2019-03-30T11:35:06.905Z,101740.09
2019-03-30T11:36:14.427Z,101733.39
2019-03-30T11:37:20.626Z,101731.14
2019-03-30T11:38:26.627Z,101736.05
2019-03-30T11:39:33.244Z,101725.45
2019-03-30T11:40:39.651Z,101735.71
2019-03-30T11:41:46.752Z,101737.63
2019-03-30T11:42:52.540Z,101732.02
2019-03-30T11:43:59.714Z,101730.74
2019-03-30T11:45:05.611Z,101720.63
2019-03-30T11:46:11.356Z,101730.23
2019-03-30T11:47:17.474Z,101727.89
2019-03-30T11:48:26.720Z,101736.77
2019-03-30T11:49:34.469Z,101739.86
2019-03-30T11:50:41.292Z,101738.43
2019-03-30T11:51:47.722Z,101753.44
2019-03-30T11:52:54.631Z,101746.61
2019-03-30T11:54:00.638Z,101746.00
2019-03-30T11:55:20.636Z,101749.55
2019-03-30T11:56:14.789Z,101743.47
2019-03-30T11:57:22.172Z,101738.52
2019-03-30T11:58:28.568Z,101739.88
2019-03-30T11:59:35.092Z,101745.25
2019-03-30T12:00:42.143Z,101739.05
2019-03-30T12:01:49.101Z,101739.70
2019-03-30T12:02:55.288Z,101734.09
2019-03-30T12:04:03.519Z,101735.18
2019-03-30T12:05:09.411Z,101734.21
2019-03-30T12:06:15.204Z,101738.23
2019-03-30T12:07:22.033Z,101735.60
2019-03-30T12:08:28.693Z,101734.54
2019-03-30T12:09:35.244Z,101728.42
2019-03-30T12:10:41.462Z,101729.39
2019-03-30T12:11:47.700Z,101722.89
2019-03-30T12:12:53.698Z,101736.06
2019-03-30T12:14:00.714Z,101726.26
2019-03-30T12:15:06.907Z,101739.61
2019-03-30T12:16:13.433Z,101734.34
2019-03-30T12:17:20.497Z,101723.74
2019-03-30T12:18:27.429Z,101719.02
2019-03-30T12:19:34.056Z,101731.32
2019-03-30T12:20:40.116Z,101724.22
2019-03-30T12:21:46.637Z,101715.05
2019-03-30T12:22:53.458Z,101715.97
2019-03-30T12:23:59.529Z,101712.95
2019-03-30T12:25:06.814Z,101715.16
2019-03-30T12:26:12.563Z,101717.55
2019-03-30T12:27:18.852Z,101710.80
2019-03-30T12:28:25.600Z,101708.55
2019-03-30T12:29:31.718Z,101706.51
2019-03-30T12:30:38.116Z,101714.23
2019-03-30T12:31:44.606Z,101710.40
2019-03-30T12:32:50.417Z,101701.70
2019-03-30T12:33:56.829Z,101704.58
2019-03-30T12:35:03.342Z,101706.18
2019-03-30T12:36:10.248Z,101699.08
2019-03-30T12:37:17.638Z,101685.55
2019-03-30T12:38:24.609Z,101684.51
2019-03-30T12:39:30.616Z,101669.28
2019-03-30T12:40:37.553Z,101668.83
2019-03-30T12:41:44.993Z,101675.31